Time;durP1;ratioP1;P1;durP2;ratioP2;P2;SDS_P1;SDS_P2;PMS_P1;PMS_P2;Temp;Humidity;BMP_temperature;BMP_pressure;BME280_temperature;BME280_humidity;BME280_pressure;Samples;Min_cycle;Max_cycle;Signal;HPM_P1;HPM_P2
2022/09/29 00:01:10;;;;;;;5.75;3.20;;;;;;;6.21;100.00;99861.50;5075183;28;20441;-50
2022/09/29 00:03:38;;;;;;;5.65;3.50;;;;;;;6.03;100.00;99868.72;5074021;28;20086;-54
2022/09/29 00:06:13;;;;;;;6.82;3.90;;;;;;;6.07;100.00;99861.53;5072408;28;20060;-54
2022/09/29 00:08:41;;;;;;;6.18;3.63;;;;;;;5.96;100.00;99864.78;5071279;28;20049;-53
2022/09/29 00:11:10;;;;;;;6.70;3.72;;;;;;;5.95;100.00;99860.47;5072720;28;20041;-52
2022/09/29 00:13:38;;;;;;;7.55;3.70;;;;;;;5.95;100.00;99867.50;5074846;28;20042;-52
2022/09/29 00:16:06;;;;;;;6.93;3.60;;;;;;;6.01;100.00;99862.75;5074891;28;20462;-53
2022/09/29 00:18:35;;;;;;;7.15;4.00;;;;;;;6.00;100.00;99868.06;5073434;28;20041;-52
2022/09/29 00:21:06;;;;;;;6.65;3.90;;;;;;;5.95;100.00;99860.47;5072113;28;20071;-54
2022/09/29 00:23:36;;;;;;;6.38;3.80;;;;;;;5.96;100.00;99859.56;5072835;28;20044;-50
2022/09/29 00:26:06;;;;;;;8.27;4.03;;;;;;;5.88;100.00;99856.59;5074611;28;20044;-51
2022/09/29 00:28:36;;;;;;;8.35;4.10;;;;;;;5.87;100.00;99860.13;5074106;28;20076;-53
2022/09/29 00:31:05;;;;;;;6.70;3.92;;;;;;;5.92;100.00;99852.84;5074683;28;20094;-51
2022/09/29 00:33:37;;;;;;;6.80;4.30;;;;;;;5.90;100.00;99862.53;5071841;28;20048;-53
2022/09/29 00:36:07;;;;;;;6.95;4.47;;;;;;;5.88;100.00;99859.19;5072754;28;20506;-53
2022/09/29 00:38:37;;;;;;;7.82;4.43;;;;;;;5.81;100.00;99861.34;5074777;28;20440;-54
2022/09/29 00:41:06;;;;;;;8.18;4.40;;;;;;;5.90;100.00;99866.00;5074226;28;20043;-51
2022/09/29 00:43:55;;;;;;;10.40;4.43;;;;;;;5.91;100.00;99862.44;5072203;28;20045;-53
2022/09/29 00:46:33;;;;;;;6.78;4.30;;;;;;;5.90;100.00;99866.00;5070715;28;20429;-53
2022/09/29 00:49:05;;;;;;;7.30;4.57;;;;;;;5.84;100.00;99862.91;5034411;28;20104;-52
2022/09/29 00:51:34;;;;;;;8.75;4.78;;;;;;;5.82;100.00;99863.03;5034819;28;20050;-50
2022/09/29 00:54:05;;;;;;;8.07;5.32;;;;;;;5.75;100.00;99866.91;5032722;28;20041;-51
2022/09/29 00:56:35;;;;;;;8.57;5.15;;;;;;;5.73;100.00;99860.97;5031513;28;20107;-51
2022/09/29 00:59:08;;;;;;;7.78;4.70;;;;;;;5.71;100.00;99870.63;5034220;28;20053;-50
2022/09/29 01:01:37;;;;;;;7.80;5.18;;;;;;;5.65;100.00;99861.41;5033763;28;20095;-48
2022/09/29 01:04:09;;;;;;;7.93;4.50;;;;;;;5.69;100.00;99864.69;5033533;28;20373;-50
2022/09/29 01:06:41;;;;;;;7.80;4.25;;;;;;;5.63;100.00;99862.44;5032549;28;20045;-51
2022/09/29 01:09:15;;;;;;;6.85;4.25;;;;;;;5.63;100.00;99863.28;5034372;28;20544;-52
2022/09/29 01:11:44;;;;;;;7.07;4.35;;;;;;;5.67;100.00;99863.94;5033349;28;20111;-50
2022/09/29 01:14:13;;;;;;;6.80;4.07;;;;;;;5.66;100.00;99867.47;5031441;28;20160;-51
2022/09/29 01:16:41;;;;;;;6.68;4.25;;;;;;;5.59;100.00;99861.81;5032763;28;20064;-48
2022/09/29 01:19:15;;;;;;;7.85;4.45;;;;;;;5.56;100.00;99861.97;5033631;28;20053;-50
2022/09/29 01:22:04;;;;;;;6.57;4.20;;;;;;;5.59;100.00;99859.19;5033798;28;20057;-51
2022/09/29 01:24:57;;;;;;;7.53;4.40;;;;;;;5.45;100.00;99875.63;5031951;28;20050;-51
2022/09/29 01:28:11;;;;;;;9.38;4.50;;;;;;;5.53;100.00;99859.53;5031204;28;20061;-48
2022/09/29 01:31:09;;;;;;;7.47;4.18;;;;;;;5.44;100.00;99867.91;4991230;28;20133;-49
2022/09/29 01:33:41;;;;;;;6.93;4.22;;;;;;;5.35;100.00;99862.31;5030435;28;20523;-49
2022/09/29 01:36:19;;;;;;;6.95;4.35;;;;;;;5.39;100.00;99865.59;5031225;28;20045;-50
2022/09/29 01:38:58;;;;;;;7.30;4.47;;;;;;;5.44;100.00;99870.53;5031306;28;20529;-53
2022/09/29 01:41:32;;;;;;;8.18;4.88;;;;;;;5.39;100.00;99869.03;5029972;28;20061;-49
2022/09/29 01:44:08;;;;;;;8.88;4.72;;;;;;;5.39;100.00;99871.63;5032079;28;20045;-53
2022/09/29 01:46:46;;;;;;;8.60;4.43;;;;;;;5.48;100.00;99859.84;5032845;28;20424;-52
2022/09/29 01:49:15;;;;;;;6.82;4.30;;;;;;;5.32;100.00;99862.50;5072417;28;20564;-50
2022/09/29 01:51:51;;;;;;;9.10;4.45;;;;;;;5.23;100.00;99871.69;5070760;28;20057;-52
2022/09/29 01:54:25;;;;;;;6.95;4.32;;;;;;;5.18;100.00;99868.53;5072398;28;20087;-52
2022/09/29 01:56:58;;;;;;;7.80;4.32;;;;;;;5.12;100.00;99865.44;5072950;28;20110;-51
2022/09/29 01:59:31;;;;;;;8.57;4.38;;;;;;;5.19;100.00;99864.97;5070949;28;20094;-53
2022/09/29 02:02:09;;;;;;;8.55;4.63;;;;;;;5.18;100.00;99860.72;5069541;28;20048;-52
2022/09/29 02:04:41;;;;;;;7.60;4.47;;;;;;;5.12;100.00;99862.81;5071628;28;20373;-52
2022/09/29 02:07:13;;;;;;;;;;;;;;;5.22;100.00;99858.75;5070679;28;20533;-54
2022/09/29 02:09:46;;;;;;;7.30;4.53;;;;;;;5.15;100.00;99866.06;5072312;28;19956;-52
2022/09/29 02:12:21;;;;;;;7.18;4.50;;;;;;;5.15;100.00;99868.69;5072421;28;20041;-52
2022/09/29 02:14:52;;;;;;;9.10;4.70;;;;;;;5.22;100.00;99863.94;5072783;28;20040;-52
2022/09/29 02:17:26;;;;;;;7.97;4.88;;;;;;;5.19;100.00;99859.75;5072551;28;20384;-50
2022/09/29 02:19:54;;;;;;;8.43;4.53;;;;;;;5.14;100.00;99867.03;5072091;28;20094;-52
2022/09/29 02:22:23;;;;;;;7.93;4.60;;;;;;;5.08;100.00;99862.16;5070396;28;20109;-51
2022/09/29 02:24:55;;;;;;;6.70;4.22;;;;;;;5.07;100.00;99865.69;5070441;28;20045;-50
2022/09/29 02:27:24;;;;;;;6.43;4.13;;;;;;;5.04;100.00;99865.88;5070584;28;20044;-52
2022/09/29 02:29:52;;;;;;;8.13;5.32;;;;;;;5.07;100.00;99868.28;5072569;28;20052;-51
2022/09/29 02:32:22;;;;;;;8.40;4.70;;;;;;;5.00;100.00;99870.41;5068101;28;20040;-50
2022/09/29 02:34:52;;;;;;;7.25;4.20;;;;;;;5.08;100.00;99872.56;5070421;28;20392;-52
2022/09/29 02:37:36;;;;;;;7.20;4.50;;;;;;;5.01;100.00;99866.88;5071808;28;20056;-50
2022/09/29 02:40:24;;;;;;;10.02;5.07;;;;;;;5.11;100.00;99871.56;5068645;28;20052;-51
2022/09/29 02:43:19;;;;;;;7.90;4.53;;;;;;;5.02;100.00;99872.94;5101812;28;20052;-54
2022/09/29 02:46:01;;;;;;;7.95;5.07;;;;;;;5.02;100.00;99873.78;5063511;28;20057;-52
2022/09/29 02:48:59;;;;;;;8.45;5.18;;;;;;;4.91;100.00;99871.78;5072159;28;20079;-51
2022/09/29 02:51:31;;;;;;;7.60;4.50;;;;;;;4.82;100.00;99869.69;5073724;28;20044;-50
2022/09/29 02:54:12;;;;;;;9.30;5.20;;;;;;;4.88;100.00;99866.75;5079216;28;20098;-51
2022/09/29 02:56:49;;;;;;;9.93;5.65;;;;;;;4.79;100.00;99867.28;5077465;28;20067;-48
2022/09/29 02:59:23;;;;;;;8.63;5.57;;;;;;;4.89;100.00;99868.44;5076413;28;20056;-49
2022/09/29 03:01:53;;;;;;;14.07;7.15;;;;;;;4.87;100.00;99869.44;5079141;28;20060;-49
2022/09/29 03:04:25;;;;;;;12.90;6.25;;;;;;;4.86;100.00;99868.59;5079018;28;20056;-49
2022/09/29 03:06:54;;;;;;;10.20;5.50;;;;;;;4.91;100.00;99873.56;5079081;28;20087;-50
2022/09/29 03:09:22;;;;;;;12.10;6.60;;;;;;;4.91;100.00;99874.38;5079075;28;20044;-51
2022/09/29 03:11:50;;;;;;;14.18;7.10;;;;;;;4.88;100.00;99871.97;5078956;28;20041;-50
2022/09/29 03:14:18;;;;;;;15.43;6.85;;;;;;;4.89;100.00;99867.59;5078170;28;20036;-53
2022/09/29 03:16:46;;;;;;;20.48;6.90;;;;;;;4.83;100.00;99867.94;5075044;28;20060;-49
2022/09/29 03:19:14;;;;;;;12.10;6.93;;;;;;;4.89;100.00;99868.44;5075903;28;20048;-51
2022/09/29 03:21:43;;;;;;;11.73;6.65;;;;;;;4.82;100.00;99868.88;5078876;28;20041;-54
2022/09/29 03:24:11;;;;;;;13.85;5.72;;;;;;;4.88;100.00;99871.09;5078738;28;20511;-51
2022/09/29 03:26:40;;;;;;;11.60;5.75;;;;;;;4.91;100.00;99871.78;5078925;28;20093;-53
2022/09/29 03:29:08;;;;;;;9.52;5.57;;;;;;;4.98;100.00;99876.66;5077951;28;20499;-49
2022/09/29 03:31:36;;;;;;;16.35;7.68;;;;;;;4.96;100.00;99874.13;5075177;28;20068;-49
2022/09/29 03:34:04;;;;;;;9.48;5.13;;;;;;;4.98;100.00;99867.06;5077224;28;20044;-53
2022/09/29 03:36:32;;;;;;;17.98;5.68;;;;;;;4.92;100.00;99862.19;5077442;28;20084;-50
2022/09/29 03:39:02;;;;;;;8.38;5.40;;;;;;;4.98;100.00;99872.28;5076706;28;20449;-50
2022/09/29 03:41:30;;;;;;;10.90;4.97;;;;;;;4.89;100.00;99871.03;5075620;28;20056;-51
2022/09/29 03:43:58;;;;;;;15.90;5.18;;;;;;;4.83;100.00;99866.16;5076964;28;20037;-50
2022/09/29 03:46:26;;;;;;;11.45;4.90;;;;;;;4.69;100.00;99866.94;5075161;28;20110;-50
2022/09/29 03:48:54;;;;;;;8.13;5.00;;;;;;;4.70;100.00;99867.78;5077443;28;20065;-50
2022/09/29 03:51:22;;;;;;;9.05;5.13;;;;;;;4.78;100.00;99870.78;5077885;28;20110;-49
2022/09/29 03:53:50;;;;;;;9.05;4.55;;;;;;;4.86;100.00;99878.19;5078377;28;20510;-51
2022/09/29 03:56:26;;;;;;;8.65;4.90;;;;;;;4.70;100.00;99880.81;5078542;28;20129;-51
2022/09/29 03:59:08;;;;;;;7.82;4.40;;;;;;;4.71;100.00;99877.28;5076998;28;20052;-49
2022/09/29 04:01:37;;;;;;;9.93;4.85;;;;;;;4.80;100.00;99879.38;5075192;28;20055;-53
2022/09/29 04:04:05;;;;;;;11.13;4.70;;;;;;;4.82;100.00;99877.50;5072034;28;20036;-49
2022/09/29 04:06:35;;;;;;;8.18;4.57;;;;;;;4.83;100.00;99887.00;5071931;28;20102;-50
2022/09/29 04:09:03;;;;;;;7.60;4.53;;;;;;;4.79;100.00;99889.88;5073631;28;20048;-53
2022/09/29 04:11:33;;;;;;;13.93;5.13;;;;;;;4.80;100.00;99884.59;5075353;28;20067;-48
2022/09/29 04:14:01;;;;;;;10.18;5.00;;;;;;;4.76;100.00;99888.28;5072567;28;20076;-52
2022/09/29 04:16:29;;;;;;;18.17;5.32;;;;;;;4.79;100.00;99895.09;5071242;28;20075;-52
2022/09/29 04:18:57;;;;;;;11.52;4.63;;;;;;;4.77;100.00;99895.16;5072249;28;20048;-50
2022/09/29 04:21:25;;;;;;;13.02;4.82;;;;;;;4.85;100.00;99899.94;5072925;28;20087;-50
2022/09/29 04:23:53;;;;;;;11.50;4.95;;;;;;;4.89;100.00;99904.06;5072677;28;20044;-50
2022/09/29 04:26:21;;;;;;;10.40;4.63;;;;;;;4.89;100.00;99909.28;5071912;28;20402;-52
2022/09/29 04:28:51;;;;;;;11.90;4.88;;;;;;;4.94;100.00;99907.25;5072655;28;20094;-48
2022/09/29 04:31:22;;;;;;;;;;;;;;;4.97;100.00;99908.84;5071783;28;20048;-48
2022/09/29 04:33:50;;;;;;;11.05;4.80;;;;;;;5.01;100.00;99912.97;5072184;28;19921;-49
2022/09/29 04:36:28;;;;;;;19.77;6.20;;;;;;;5.01;100.00;99912.97;5074138;28;20104;-52
2022/09/29 04:38:56;;;;;;;18.77;4.90;;;;;;;4.83;100.00;99912.25;5070908;28;20131;-51
2022/09/29 04:41:24;;;;;;;14.80;5.68;;;;;;;4.81;100.00;99917.50;5071281;28;20061;-52
2022/09/29 04:43:54;;;;;;;14.85;5.78;;;;;;;4.91;100.00;99921.28;5072422;28;20052;-52
2022/09/29 04:46:22;;;;;;;10.20;5.07;;;;;;;4.89;100.00;99914.47;5074344;28;20055;-51
2022/09/29 04:48:51;;;;;;;10.27;4.90;;;;;;;4.89;100.00;99909.28;5074126;28;20087;-51
2022/09/29 04:51:19;;;;;;;13.80;5.65;;;;;;;4.97;100.00;99916.66;5074049;28;20056;-51
2022/09/29 04:53:47;;;;;;;12.38;5.47;;;;;;;5.00;100.00;99917.31;5073795;28;20082;-52
2022/09/29 04:56:15;;;;;;;17.55;5.88;;;;;;;5.02;100.00;99917.25;5071280;28;20040;-52
2022/09/29 04:58:43;;;;;;;12.75;5.32;;;;;;;4.98;100.00;99923.56;5072540;28;20044;-51
2022/09/29 05:01:13;;;;;;;19.27;5.63;;;;;;;4.96;100.00;99928.84;5074267;28;20051;-52
2022/09/29 05:03:42;;;;;;;13.65;5.57;;;;;;;4.93;100.00;99925.59;5072741;28;20098;-49
2022/09/29 05:06:10;;;;;;;17.38;5.95;;;;;;;4.94;100.00;99925.50;5071442;28;20068;-54
2022/09/29 05:08:38;;;;;;;8.95;5.95;;;;;;;4.93;100.00;99928.19;5071768;28;20539;-51
2022/09/29 05:11:07;;;;;;;23.40;7.45;;;;;;;4.90;100.00;99934.41;5069848;28;20057;-49
2022/09/29 05:13:36;;;;;;;19.48;6.80;;;;;;;4.94;100.00;99937.69;5073938;28;20098;-50
2022/09/29 05:16:05;;;;;;;11.05;6.80;;;;;;;5.02;100.00;99933.72;5070430;28;20450;-50
2022/09/29 05:18:34;;;;;;;14.77;6.75;;;;;;;5.01;100.00;99937.25;5070946;28;20053;-52
2022/09/29 05:21:04;;;;;;;19.92;5.97;;;;;;;5.00;100.00;99939.94;5071001;28;20407;-51
2022/09/29 05:23:52;;;;;;;17.33;5.90;;;;;;;4.90;100.00;99947.44;5071836;28;20464;-52
2022/09/29 05:26:20;;;;;;;16.45;6.57;;;;;;;4.96;100.00;99948.84;5073682;28;20531;-50
2022/09/29 05:28:48;;;;;;;12.50;6.57;;;;;;;5.01;100.00;99952.06;5073434;28;20387;-49
2022/09/29 05:31:20;;;;;;;13.07;6.10;;;;;;;4.94;100.00;99953.34;5073440;28;20047;-48
2022/09/29 05:33:49;;;;;;;23.50;6.32;;;;;;;4.93;100.00;99952.47;5073463;28;20123;-51
2022/09/29 05:36:17;;;;;;;23.38;6.60;;;;;;;4.87;100.00;99958.88;5073513;28;20051;-51
2022/09/29 05:38:46;;;;;;;9.18;6.30;;;;;;;4.91;100.00;99959.56;5072293;28;20420;-51
2022/09/29 05:41:15;;;;;;;15.77;6.75;;;;;;;4.87;100.00;99953.66;5070617;28;20052;-51
2022/09/29 05:43:43;;;;;;;11.90;6.78;;;;;;;4.84;100.00;99959.03;5071237;28;20068;-49
2022/09/29 05:46:11;;;;;;;14.65;7.75;;;;;;;5.02;100.00;99964.16;5069875;28;20546;-51
2022/09/29 05:48:39;;;;;;;12.45;7.07;;;;;;;4.99;100.00;99961.72;5070324;28;20565;-51
2022/09/29 05:51:11;;;;;;;12.75;7.60;;;;;;;4.97;100.00;99968.78;5071756;28;20147;-52
2022/09/29 05:53:39;;;;;;;18.60;7.28;;;;;;;4.98;100.00;99967.88;5070904;28;20525;-52
2022/09/29 05:56:08;;;;;;;18.70;7.70;;;;;;;4.85;100.00;99972.91;5069119;28;20044;-50
2022/09/29 05:58:37;;;;;;;19.55;8.13;;;;;;;4.82;100.00;99963.47;5071030;28;20106;-52
2022/09/29 06:01:06;;;;;;;26.27;10.02;;;;;;;4.85;100.00;99971.16;5070068;28;20639;-50
2022/09/29 06:03:35;;;;;;;22.77;8.85;;;;;;;4.91;100.00;99970.81;5072164;28;20054;-52
2022/09/29 06:06:07;;;;;;;29.60;11.10;;;;;;;4.81;100.00;99969.63;5070696;28;20123;-49
2022/09/29 06:08:37;;;;;;;32.20;10.55;;;;;;;4.88;100.00;99967.50;5070424;28;20040;-55
2022/09/29 06:11:07;;;;;;;38.15;10.27;;;;;;;4.90;100.00;99976.94;5070204;28;20041;-50
2022/09/29 06:13:38;;;;;;;27.25;10.18;;;;;;;4.88;100.00;99975.34;5070377;28;20056;-51
2022/09/29 06:16:06;;;;;;;44.35;10.55;;;;;;;4.87;100.00;99978.88;5069156;28;20779;-48
2022/09/29 06:18:35;;;;;;;49.15;11.00;;;;;;;4.76;100.00;99976.88;5069548;28;20087;-53
2022/09/29 06:21:04;;;;;;;49.28;11.05;;;;;;;4.87;100.00;99984.91;5072495;28;20563;-53
2022/09/29 06:23:33;;;;;;;73.88;12.23;;;;;;;4.73;100.00;99987.44;5072748;28;20049;-49
2022/09/29 06:26:06;;;;;;;28.65;11.00;;;;;;;4.76;100.00;99982.06;5069974;28;20040;-51
2022/09/29 06:28:34;;;;;;;32.28;11.32;;;;;;;4.83;100.00;99985.19;5071626;28;20094;-50
2022/09/29 06:31:04;;;;;;;28.77;9.82;;;;;;;4.88;100.00;99989.22;5072403;28;20051;-52
2022/09/29 06:33:35;;;;;;;22.15;9.27;;;;;;;4.90;100.00;99992.56;5072184;28;20048;-50
2022/09/29 06:38:56;;;;;;;15.02;9.38;;;;;;;5.06;100.00;99999.56;5070487;28;20047;-51
2022/09/29 06:41:27;;;;;;;15.30;9.35;;;;;;;5.17;100.00;100010.22;5069513;28;20044;-52
2022/09/29 06:43:56;;;;;;;27.43;10.20;;;;;;;5.17;100.00;100012.81;5070319;28;20072;-51
2022/09/29 06:46:25;;;;;;;29.73;9.38;;;;;;;5.27;100.00;100007.09;5071991;28;21010;-53
2022/09/29 06:48:53;;;;;;;14.35;10.55;;;;;;;5.30;100.00;100012.13;5072414;28;20052;-53
2022/09/29 06:51:22;;;;;;;35.95;10.38;;;;;;;5.27;100.00;100013.13;5072213;28;20052;-52
2022/09/29 06:53:58;;;;;;;15.63;9.95;;;;;;;5.46;100.00;100014.72;5072394;28;20099;-50
2022/09/29 06:56:38;;;;;;;13.27;9.50;;;;;;;5.51;100.00;100021.34;5072433;28;20562;-53
2022/09/29 06:59:07;;;;;;;19.77;10.30;;;;;;;5.52;100.00;100017.81;5072422;28;20051;-52
2022/09/29 07:01:35;;;;;;;14.00;10.25;;;;;;;5.65;100.00;100022.34;5071782;28;20143;-50
2022/09/29 07:04:03;;;;;;;16.33;11.60;;;;;;;5.68;100.00;100020.38;5069288;28;20045;-53
2022/09/29 07:06:32;;;;;;;33.78;12.43;;;;;;;5.68;100.00;100022.97;5070955;28;20048;-52
2022/09/29 07:09:00;;;;;;;16.58;12.00;;;;;;;5.74;100.00;100029.63;5071672;28;20040;-53
2022/09/29 07:11:28;;;;;;;18.25;12.52;;;;;;;5.87;100.00;100027.13;5072179;28;20059;-53
2022/09/29 07:13:58;;;;;;;21.35;12.50;;;;;;;5.86;100.00;100028.06;5070153;28;20507;-51
2022/09/29 07:16:26;;;;;;;29.55;13.02;;;;;;;5.91;100.00;100034.69;5068464;28;20048;-54
2022/09/29 07:18:54;;;;;;;18.85;12.98;;;;;;;6.01;100.00;100035.03;5070587;28;20049;-52
2022/09/29 07:21:22;;;;;;;64.60;16.25;;;;;;;6.02;100.00;100036.69;5071964;28;20391;-54
2022/09/29 07:23:50;;;;;;;57.55;15.40;;;;;;;5.97;100.00;100043.09;5070119;28;20151;-54
2022/09/29 07:26:18;;;;;;;39.22;16.05;;;;;;;5.97;100.00;100038.72;5069384;28;20037;-53
2022/09/29 07:28:47;;;;;;;45.67;16.48;;;;;;;6.00;100.00;100037.72;5072023;28;20060;-53
2022/09/29 07:31:18;;;;;;;49.28;16.17;;;;;;;6.08;100.00;100041.56;5071850;28;20079;-53
2022/09/29 07:33:48;;;;;;;43.80;16.80;;;;;;;6.09;100.00;100045.00;5072105;28;20048;-54
2022/09/29 07:36:17;;;;;;;31.27;17.80;;;;;;;6.22;100.00;100043.34;5072178;28;20098;-54
2022/09/29 07:38:47;;;;;;;57.35;17.50;;;;;;;6.18;100.00;100041.88;5071220;28;20049;-53
2022/09/29 07:41:15;;;;;;;34.08;16.48;;;;;;;6.22;100.00;100043.34;5072924;28;20044;-53
2022/09/29 07:43:43;;;;;;;57.97;16.40;;;;;;;6.25;100.00;100048.38;5074403;28;20124;-52
2022/09/29 07:46:11;;;;;;;32.80;17.33;;;;;;;6.38;100.00;100052.88;5075397;28;20467;-51
2022/09/29 07:48:41;;;;;;;52.55;20.20;;;;;;;6.39;100.00;100054.56;5074175;28;20092;-54
2022/09/29 07:51:12;;;;;;;32.72;18.02;;;;;;;6.64;100.00;100053.94;5075470;28;20048;-50
2022/09/29 07:53:41;;;;;;;26.02;19.55;;;;;;;6.72;100.00;100059.53;5075421;28;20061;-55
2022/09/29 07:56:12;;;;;;;31.75;20.65;;;;;;;6.86;100.00;100063.06;5075403;28;20535;-51
2022/09/29 07:58:40;;;;;;;31.50;21.88;;;;;;;6.96;100.00;100069.38;5075547;28;20051;-52
2022/09/29 08:01:14;;;;;;;28.95;20.10;;;;;;;7.06;100.00;100064.41;5071982;28;20380;-54
2022/09/29 08:03:49;;;;;;;28.87;20.93;;;;;;;7.01;100.00;100072.56;5072149;28;20052;-52
2022/09/29 08:06:18;;;;;;;26.23;19.25;;;;;;;7.07;100.00;100066.94;5075170;28;20076;-55
2022/09/29 08:08:46;;;;;;;33.08;19.60;;;;;;;7.13;100.00;100070.94;5074360;28;20049;-55
2022/09/29 08:11:29;;;;;;;30.08;19.75;;;;;;;7.18;100.00;100075.88;5072662;28;20407;-55
2022/09/29 08:14:01;;;;;;;25.42;18.83;;;;;;;7.28;100.00;100082.22;5074538;28;20102;-55
2022/09/29 08:16:29;;;;;;;30.08;19.70;;;;;;;7.45;100.00;100086.38;5071577;28;20052;-54
2022/09/29 08:18:59;;;;;;;26.75;19.98;;;;;;;7.56;100.00;100089.13;5072263;28;20652;-55
2022/09/29 08:21:28;;;;;;;26.58;20.23;;;;;;;7.48;100.00;100096.63;5073464;28;20056;-54
2022/09/29 08:23:56;;;;;;;27.63;19.63;;;;;;;7.50;100.00;100097.38;5074870;28;20052;-55
2022/09/29 08:26:24;;;;;;;27.27;19.25;;;;;;;7.70;100.00;100090.00;5072585;28;20394;-54
2022/09/29 08:29:10;;;;;;;25.17;19.63;;;;;;;7.73;100.00;100095.03;5072633;28;20511;-54
2022/09/29 08:31:43;;;;;;;32.03;20.40;;;;;;;7.73;100.00;100101.13;5071796;28;20045;-55
2022/09/29 08:34:14;;;;;;;28.92;21.70;;;;;;;8.00;100.00;100104.66;5071967;28;20080;-54
2022/09/29 08:36:42;;;;;;;29.08;21.45;;;;;;;8.07;100.00;100105.91;5072611;28;20079;-56
2022/09/29 08:39:11;;;;;;;29.17;22.95;;;;;;;8.14;100.00;100104.59;5072234;28;20127;-56
2022/09/29 08:41:58;;;;;;;27.10;21.75;;;;;;;8.27;100.00;100113.28;5073955;28;20054;-55
2022/09/29 08:44:34;;;;;;;28.08;21.90;;;;;;;8.30;100.00;100117.47;5072050;28;20044;-56
2022/09/29 08:47:17;;;;;;;30.20;22.65;;;;;;;8.52;100.00;100127.41;5070216;28;20049;-56
2022/09/29 08:49:52;;;;;;;28.90;23.05;;;;;;;8.80;100.00;100117.63;5072072;28;20174;-55
2022/09/29 08:52:25;;;;;;;30.65;22.65;;;;;;;9.04;100.00;100128.22;5073439;28;20044;-56
2022/09/29 08:54:59;;;;;;;28.20;22.50;;;;;;;9.17;100.00;100120.31;5072463;28;20056;-56
2022/09/29 08:57:35;;;;;;;31.73;23.95;;;;;;;9.43;100.00;100122.84;5070114;28;20384;-57
2022/09/29 09:00:04;;;;;;;29.73;24.98;;;;;;;9.82;100.00;100123.53;5071717;28;20482;-57
2022/09/29 09:02:59;;;;;;;28.20;23.23;;;;;;;10.02;100.00;100124.72;5069974;28;20087;-57
2022/09/29 09:05:52;;;;;;;28.92;23.77;;;;;;;10.39;100.00;100129.00;5071725;28;20109;-57
2022/09/29 09:08:34;;;;;;;29.07;23.47;;;;;;;10.57;100.00;100132.06;5063009;28;20048;-56
2022/09/29 09:11:15;;;;;;;25.97;21.53;;;;;;;10.90;100.00;100131.22;5071865;28;20051;-56
2022/09/29 09:13:55;;;;;;;24.92;21.67;;;;;;;11.15;100.00;100134.56;5071774;28;20048;-56
2022/09/29 09:16:35;;;;;;;24.02;21.30;;;;;;;11.30;100.00;100135.13;5070348;28;20135;-58
2022/09/29 09:19:28;;;;;;;26.27;22.00;;;;;;;11.46;100.00;100140.84;5071172;28;20507;-56
2022/09/29 09:22:11;;;;;;;24.88;21.08;;;;;;;11.57;100.00;100142.63;5073813;28;20098;-58
2022/09/29 09:24:45;;;;;;;24.13;20.88;;;;;;;11.65;100.00;100139.38;5073893;28;20113;-58
2022/09/29 09:27:18;;;;;;;23.70;20.27;;;;;;;11.61;100.00;100144.06;5071699;28;20448;-58
2022/09/29 09:29:49;;;;;;;26.60;21.55;;;;;;;11.57;100.00;100137.38;5071338;28;20507;-58
2022/09/29 09:32:22;;;;;;;22.95;19.70;;;;;;;11.56;100.00;100142.75;5070132;28;20053;-58
2022/09/29 09:34:57;;;;;;;21.77;19.23;;;;;;;11.96;100.00;100137.75;5073569;28;20383;-56
2022/09/29 09:37:39;;;;;;;19.95;17.42;;;;;;;12.06;100.00;100132.56;5073386;28;20074;-57
2022/09/29 09:40:17;;;;;;;19.05;16.15;;;;;;;12.29;100.00;100141.19;5073365;28;20523;-57
2022/09/29 09:42:51;;;;;;;18.40;16.38;;;;;;;12.61;100.00;100139.44;5072990;28;20483;-56
2022/09/29 09:45:29;;;;;;;19.60;16.50;;;;;;;12.90;100.00;100141.38;5071451;28;20102;-56
2022/09/29 09:48:01;;;;;;;19.23;16.30;;;;;;;13.04;100.00;100137.59;5067322;28;20098;-56
2022/09/29 09:50:29;;;;;;;;;;;;;;;13.31;100.00;100145.72;5071634;28;20499;-57
2022/09/29 09:53:01;;;;;;;;;;;;;;;13.65;100.00;100141.94;5073357;28;19963;-56
2022/09/29 09:55:33;;;;;;;;;;;;;;;13.92;100.00;100143.06;5072110;28;19921;-56
2022/09/29 09:58:11;;;;;;;;;;;;;;;14.14;100.00;100139.31;5073346;28;19924;-56
2022/09/29 10:00:42;;;;;;;;;;;;;;;14.50;100.00;100142.19;5073766;28;20281;-56
2022/09/29 10:03:11;;;;;;;;;;;;;;;14.60;100.00;100139.50;5073239;28;20345;-56
2022/09/29 10:05:41;;;;;;;;;;;;;;;14.76;100.00;100141.59;5073663;28;19963;-57
2022/09/29 10:08:13;;;;;;;;;;;;;;;14.95;100.00;100138.03;5071743;28;19920;-57
2022/09/29 10:10:42;;;;;;;;;;;;;;;15.17;100.00;100142.13;5071499;28;20452;-56
2022/09/29 10:13:25;;;;;;;;;;;;;;;15.52;99.49;100138.72;5071074;28;19924;-58
2022/09/29 10:15:54;;;;;;;;;;;;;;;15.75;96.14;100137.44;5073352;28;19927;-59
2022/09/29 10:18:25;;;;;;;;;;;;;;;16.09;91.35;100139.44;5073179;28;19927;-59
2022/09/29 10:20:53;;;;;;;;;;;;;;;16.13;92.24;100130.19;5073258;28;19927;-59
2022/09/29 10:23:26;;;;;;;;;;;;;;;16.10;90.36;100144.63;5071725;28;19927;-59
2022/09/29 10:25:55;;;;;;;;;;;;;;;16.46;90.16;100133.09;5072784;28;20359;-59
2022/09/29 10:28:24;;;;;;;;;;;;;;;16.65;88.87;100140.03;5070619;28;19924;-59
2022/09/29 10:30:52;;;;;;;;;;;;;;;17.27;88.63;100142.50;5070298;28;19974;-59
2022/09/29 10:33:21;;;;;;;;;;;;;;;17.19;84.71;100148.63;5068343;28;20438;-58
2022/09/29 10:35:53;;;;;;;;;;;;;;;17.57;82.00;100145.59;5072250;28;19943;-59
2022/09/29 10:38:24;;;;;;;;;;;;;;;17.72;85.70;100140.47;5069385;28;19928;-58
2022/09/29 10:40:58;;;;;;;;;;;;;;;18.14;82.88;100144.84;5070628;28;19951;-58
2022/09/29 10:43:27;;;;;;;;;;;;;;;18.33;77.96;100142.88;5068664;28;20287;-58
2022/09/29 10:45:57;;;;;;;;;;;;;;;18.55;75.39;100147.47;5072248;28;19920;-58
2022/09/29 10:48:26;;;;;;;;;;;;;;;18.97;74.79;100148.25;5072724;28;19920;-58
2022/09/29 10:50:55;;;;;;;;;;;;;;;18.96;71.18;100143.91;5072767;28;19927;-58
2022/09/29 10:53:34;;;;;;;;;;;;;;;19.05;70.47;100142.88;5073027;28;19935;-59
2022/09/29 10:56:08;;;;;;;;;;;;;;;19.11;70.39;100145.88;5072836;28;19968;-61
2022/09/29 10:58:37;;;;;;;;;;;;;;;19.18;68.87;100150.34;5071394;28;19974;-58
2022/09/29 11:01:26;;;;;;;;;;;;;;;19.41;66.79;100150.41;5072730;28;19986;-59
2022/09/29 11:04:00;;;;;;;;;;;;;;;19.67;65.80;100153.75;5072723;28;19921;-60
2022/09/29 11:06:29;;;;;;;;;;;;;;;20.07;65.08;100152.66;5072649;28;19928;-59
2022/09/29 11:09:01;;;;;;;;;;;;;;;20.29;62.82;100151.97;5071339;28;20004;-58
2022/09/29 11:11:31;;;;;;;;;;;;;;;19.89;59.80;100158.31;5072659;28;20287;-59
2022/09/29 11:13:59;;;;;;;;;;;;;;;20.29;62.12;100152.81;5075647;28;19942;-59
2022/09/29 11:16:29;;;;;;;;;;;;;;;20.36;59.57;100148.41;5076330;28;19975;-59
2022/09/29 11:18:59;;;;;;;;;;;;;;;20.05;61.87;100149.34;5076140;28;19920;-59
2022/09/29 11:22:00;;;;;;;;;;;;;;;19.21;62.13;100152.66;5076167;28;19982;-59
2022/09/29 11:24:37;;;;;;;;;;;;;;;18.96;62.57;100154.56;5076133;28;19948;-59
2022/09/29 11:27:13;;;;;;;;;;;;;;;19.46;62.10;100155.19;5075101;28;19978;-60
2022/09/29 11:29:44;;;;;;;;;;;;;;;20.05;61.38;100152.00;5076456;28;19921;-60
2022/09/29 11:32:18;;;;;;;;;;;;;;;19.63;60.96;100157.78;5074657;28;19978;-58
2022/09/29 11:34:56;;;;;;;;;;;;;;;19.44;60.13;100157.19;5074089;28;19920;-60
2022/09/29 11:37:36;;;;;;;;;;;;;;;19.49;61.86;100160.19;5073142;28;19963;-59
2022/09/29 11:40:11;;;;;;;;;;;;;;;19.92;60.14;100157.13;5072273;28;19920;-63
2022/09/29 11:42:51;;;;;;;;;;;;;;;20.42;57.85;100145.03;5073249;28;19928;-62
2022/09/29 11:45:21;;;;;;;;;;;;;;;20.72;56.05;100153.13;5075744;28;19920;-63
2022/09/29 11:48:19;;;;;;;;;;;;;;;20.64;55.05;100150.47;5072164;28;19943;-63
2022/09/29 11:50:49;;;;;;;;;;;;;;;20.35;55.02;100156.59;5073610;28;19927;-62
2022/09/29 11:53:23;;;;;;;;;;;;;;;20.27;53.86;100153.00;5073932;28;20285;-63
2022/09/29 11:56:03;;;;;;;;;;;;;;;20.80;52.93;100157.53;5074706;28;19928;-59
2022/09/29 11:58:45;;;;;;;;;;;;;;;21.20;54.53;100155.41;5108489;28;20303;-59
2022/09/29 12:01:21;;;;;;;;;;;;;;;20.58;53.41;100157.38;5075836;28;19926;-60